createdAt,value
2018-07-30T00:03:16.122Z,21.4
2018-07-30T00:13:31.527Z,21.5
2018-07-30T00:23:45.639Z,21.7
2018-07-30T00:33:59.857Z,21.5
2018-07-30T00:44:14.150Z,21.5
2018-07-30T00:54:28.897Z,21.3
2018-07-30T01:04:44.083Z,21.4
2018-07-30T01:14:58.380Z,21.4
2018-07-30T01:25:13.126Z,21.2
2018-07-30T01:35:28.378Z,21
2018-07-30T01:45:42.506Z,21.1
2018-07-30T01:55:56.531Z,21
2018-07-30T02:06:11.474Z,21.1
2018-07-30T02:16:25.796Z,20.8
2018-07-30T02:26:40.831Z,20.6
2018-07-30T02:36:56.092Z,20.6
2018-07-30T02:47:11.157Z,20
2018-07-30T02:57:26.304Z,20
2018-07-30T03:07:40.163Z,19.9
2018-07-30T03:17:54.208Z,20.3
2018-07-30T03:28:09.174Z,20.4
2018-07-30T03:38:24.472Z,19.9
2018-07-30T03:48:39.360Z,19.9
2018-07-30T03:58:53.273Z,19.5
2018-07-30T04:09:08.937Z,19.5
2018-07-30T04:19:24.103Z,19.6
2018-07-30T04:29:38.443Z,19.9
2018-07-30T04:39:52.576Z,20.2
2018-07-30T04:50:07.356Z,20.3
2018-07-30T05:00:21.580Z,20.1
2018-07-30T05:10:36.363Z,20.1
2018-07-30T05:20:51.325Z,20.7
2018-07-30T05:31:05.969Z,20.9
2018-07-30T05:41:21.730Z,20.4
2018-07-30T05:51:35.837Z,20
2018-07-30T06:01:50.746Z,19
2018-07-30T06:12:04.495Z,19.4
2018-07-30T06:22:18.947Z,19.4
2018-07-30T06:32:33.432Z,20.4
2018-07-30T06:42:48.695Z,21.6
2018-07-30T06:53:02.929Z,23.6
2018-07-30T07:03:18.869Z,24.9
2018-07-30T07:13:31.713Z,26.5
2018-07-30T07:23:47.125Z,27.1
2018-07-30T07:34:02.835Z,27.9
2018-07-30T07:44:17.394Z,28.9
2018-07-30T07:54:31.417Z,27.6
2018-07-30T08:04:46.113Z,30.1
2018-07-30T08:15:00.749Z,27.8
2018-07-30T08:25:14.739Z,29.9
2018-07-30T08:35:29.609Z,30.6
2018-07-30T08:55:58.294Z,29.9
2018-07-30T09:06:12.282Z,30.3
2018-07-30T09:16:26.892Z,31.4
2018-07-30T09:26:41.664Z,32.8
2018-07-30T09:36:57.533Z,31.3
2018-07-30T09:47:13.457Z,31
2018-07-30T09:57:28.295Z,31.7
2018-07-30T10:07:42.256Z,31.3
2018-07-30T10:17:57.288Z,31.1
2018-07-30T10:28:11.806Z,31.5
2018-07-30T10:38:26.028Z,31.1
2018-07-30T10:48:41.424Z,32
2018-07-30T10:58:55.803Z,30.8
2018-07-30T11:09:10.039Z,32.2
2018-07-30T11:19:24.476Z,32.3
2018-07-30T11:29:38.807Z,31.9
2018-07-30T11:39:54.122Z,32.5
2018-07-30T11:50:08.285Z,31.6
2018-07-30T12:00:22.529Z,32.2
2018-07-30T12:10:36.712Z,32.3
2018-07-30T12:20:51.516Z,34.3
2018-07-30T12:31:07.734Z,33.3
2018-07-30T12:41:22.503Z,31.9
2018-07-30T12:51:36.822Z,31.5
2018-07-30T13:01:52.467Z,32.2
2018-07-30T13:12:08.179Z,33.6
2018-07-30T13:22:22.326Z,32.7
2018-07-30T13:32:36.430Z,34.9
2018-07-30T13:42:50.443Z,34.7
2018-07-30T13:53:05.816Z,34.3
2018-07-30T14:03:20.105Z,34.7
2018-07-30T14:13:35.811Z,33.2
2018-07-30T14:23:51.550Z,32.4
2018-07-30T14:34:06.242Z,32.9
2018-07-30T14:44:20.790Z,33.9
2018-07-30T14:54:36.377Z,32.6
2018-07-30T15:04:51.201Z,32.3
2018-07-30T15:15:06.669Z,33.3
2018-07-30T15:25:21.094Z,32.6
2018-07-30T15:35:35.328Z,33.8
2018-07-30T15:45:49.503Z,34
2018-07-30T15:56:04.928Z,34.4
2018-07-30T16:06:19.741Z,33.5
2018-07-30T16:16:35.494Z,34.2
2018-07-30T16:26:49.459Z,33.2
2018-07-30T16:37:05.002Z,33.2
2018-07-30T16:47:19.623Z,33.3
2018-07-30T16:57:35.186Z,33.7
2018-07-30T17:07:50.157Z,33.3
2018-07-30T17:18:05.723Z,33
2018-07-30T17:28:20.368Z,32.8
2018-07-30T17:38:35.214Z,33
2018-07-30T17:48:49.937Z,32.7
2018-07-30T17:59:05.092Z,31.4
2018-07-30T18:09:19.427Z,30
2018-07-30T18:19:34.222Z,28.8
2018-07-30T18:29:48.117Z,28.1
2018-07-30T18:40:03.373Z,27.9
2018-07-30T18:50:17.259Z,27.6
2018-07-30T19:00:31.147Z,27.5
2018-07-30T19:10:46.007Z,26.8
2018-07-30T19:21:01.635Z,26.6
2018-07-30T19:31:17.176Z,26.3
2018-07-30T19:41:33.124Z,25.9
2018-07-30T19:51:48.498Z,25.6
2018-07-30T20:02:04.241Z,25.1
2018-07-30T20:12:18.785Z,24.9
2018-07-30T20:22:33.363Z,24.7
2018-07-30T20:32:48.745Z,24.4
2018-07-30T20:43:03.681Z,24.1
2018-07-30T20:53:18.701Z,24.2
2018-07-30T21:03:32.662Z,24
2018-07-30T21:13:47.920Z,24.1
2018-07-30T21:24:03.655Z,23.9
2018-07-30T21:34:18.162Z,23.4
2018-07-30T21:44:33.710Z,23.2
2018-07-30T21:54:47.842Z,23.4
2018-07-30T22:05:03.320Z,23.5
2018-07-30T22:15:18.529Z,23.2
2018-07-30T22:25:33.599Z,23.1
2018-07-30T22:35:47.772Z,22.6
2018-07-30T22:46:01.877Z,22.9
2018-07-30T22:56:16.896Z,22.8
2018-07-30T23:06:32.706Z,23.6
2018-07-30T23:16:48.090Z,22.8
2018-07-30T23:27:03.742Z,22.6
2018-07-30T23:37:18.632Z,22.2
2018-07-30T23:47:34.374Z,22
2018-07-30T23:57:49.647Z,21.6
